createdAt,value
2022-11-16T00:00:05.859Z,7.10
2022-11-16T00:02:33.162Z,6.98
2022-11-16T00:04:59.958Z,6.93
2022-11-16T00:07:26.853Z,6.93
2022-11-16T00:09:53.619Z,6.87
2022-11-16T00:12:20.318Z,6.93
2022-11-16T00:14:47.016Z,6.86
2022-11-16T00:17:13.666Z,6.81
2022-11-16T00:19:40.357Z,6.88
2022-11-16T00:22:07.042Z,6.86
2022-11-16T00:24:33.845Z,6.83
2022-11-16T00:27:00.466Z,6.80
2022-11-16T00:29:27.494Z,6.83
2022-11-16T00:31:55.405Z,6.88
2022-11-16T00:34:23.507Z,6.83
2022-11-16T00:36:50.406Z,6.90
2022-11-16T00:39:18.511Z,6.93
2022-11-16T00:41:45.543Z,6.90
2022-11-16T00:44:12.756Z,6.91
2022-11-16T00:46:40.413Z,6.95
2022-11-16T00:49:07.367Z,6.93
2022-11-16T00:51:35.342Z,6.89
2022-11-16T00:54:02.759Z,6.93
2022-11-16T00:56:29.452Z,6.93
2022-11-16T00:58:56.315Z,6.89
2022-11-16T01:01:23.388Z,6.91
2022-11-16T01:03:50.112Z,6.93
2022-11-16T01:06:17.114Z,6.93
2022-11-16T01:08:44.787Z,6.87
2022-11-16T01:11:32.919Z,6.87
2022-11-16T01:14:03.215Z,6.88
2022-11-16T01:16:30.633Z,6.90
2022-11-16T01:18:57.696Z,6.89
2022-11-16T01:21:24.733Z,6.87
2022-11-16T01:23:52.267Z,6.84
2022-11-16T01:26:19.043Z,6.85
2022-11-16T01:28:46.179Z,6.84
2022-11-16T01:31:12.969Z,6.82
2022-11-16T01:33:40.263Z,6.74
2022-11-16T01:36:14.530Z,6.74
2022-11-16T01:38:43.716Z,6.72
2022-11-16T01:41:17.577Z,6.72
2022-11-16T01:43:58.046Z,6.68
2022-11-16T01:46:26.592Z,6.71
2022-11-16T01:49:08.075Z,6.67
2022-11-16T01:51:35.153Z,6.69
2022-11-16T01:54:07.193Z,6.72
2022-11-16T01:56:36.829Z,6.75
2022-11-16T01:59:04.067Z,6.73
2022-11-16T02:01:30.864Z,6.74
2022-11-16T02:03:57.647Z,6.84
2022-11-16T02:06:27.304Z,6.76
2022-11-16T02:09:31.214Z,6.78
2022-11-16T02:12:14.669Z,6.65
2022-11-16T02:15:18.444Z,6.63
2022-11-16T02:18:08.126Z,6.60
2022-11-16T02:20:34.770Z,6.63
2022-11-16T02:23:20.307Z,6.63
2022-11-16T02:25:53.079Z,6.67
2022-11-16T02:28:37.981Z,6.71
2022-11-16T02:31:07.518Z,6.50
2022-11-16T02:33:39.017Z,6.46
2022-11-16T02:36:10.599Z,6.30
2022-11-16T02:38:40.366Z,6.22
2022-11-16T02:41:12.575Z,6.30
2022-11-16T02:44:01.359Z,6.21
2022-11-16T02:46:37.111Z,6.22
2022-11-16T02:49:08.955Z,6.17
2022-11-16T02:51:36.843Z,6.13
2022-11-16T02:54:12.770Z,6.20
2022-11-16T02:56:42.561Z,6.21
2022-11-16T02:59:13.095Z,6.20
2022-11-16T03:02:02.060Z,6.14
2022-11-16T03:04:36.236Z,6.15
2022-11-16T03:07:05.908Z,6.16
2022-11-16T03:09:36.224Z,6.09
2022-11-16T03:12:08.303Z,6.15
2022-11-16T03:14:37.860Z,6.13
2022-11-16T03:17:08.940Z,6.17
2022-11-16T03:19:51.804Z,6.17
2022-11-16T03:22:24.570Z,6.17
2022-11-16T03:24:51.310Z,6.19
2022-11-16T03:27:36.264Z,6.20
2022-11-16T03:30:22.336Z,6.15
2022-11-16T03:33:08.896Z,6.20
2022-11-16T03:35:43.442Z,6.21
2022-11-16T03:38:11.359Z,6.22
2022-11-16T03:40:39.362Z,6.21
2022-11-16T03:43:07.801Z,6.27
2022-11-16T03:45:36.556Z,6.25
2022-11-16T03:48:03.380Z,6.23
2022-11-16T03:50:30.091Z,6.23
2022-11-16T03:52:56.790Z,6.24
2022-11-16T03:55:23.646Z,6.30
2022-11-16T03:57:50.318Z,6.29
2022-11-16T04:00:17.090Z,6.27
2022-11-16T04:02:43.716Z,6.26
2022-11-16T04:05:28.909Z,6.34
2022-11-16T04:08:14.216Z,6.30
2022-11-16T04:10:59.548Z,6.35
2022-11-16T04:13:50.862Z,6.35
2022-11-16T04:16:36.489Z,6.36
2022-11-16T04:19:21.805Z,6.38
2022-11-16T04:22:11.834Z,6.36
2022-11-16T04:24:41.534Z,6.42
2022-11-16T04:27:29.889Z,6.44
2022-11-16T04:29:59.057Z,6.39
2022-11-16T04:32:44.198Z,6.41
2022-11-16T04:35:29.505Z,6.49
2022-11-16T04:37:57.550Z,6.49
2022-11-16T04:40:28.009Z,6.45
2022-11-16T04:42:56.879Z,6.37
2022-11-16T04:45:43.189Z,6.40
2022-11-16T04:48:11.033Z,6.38
2022-11-16T04:50:39.696Z,6.42
2022-11-16T04:53:06.957Z,6.43
2022-11-16T04:55:34.110Z,6.41
2022-11-16T04:58:00.885Z,6.45
2022-11-16T05:00:28.085Z,6.44
2022-11-16T05:03:00.836Z,6.42
2022-11-16T05:05:28.420Z,6.43
2022-11-16T05:07:55.103Z,6.43
2022-11-16T05:10:22.020Z,6.44
2022-11-16T05:12:48.927Z,6.42
2022-11-16T05:15:17.680Z,6.45
2022-11-16T05:17:44.352Z,6.48
2022-11-16T05:20:30.230Z,6.48
2022-11-16T05:22:58.434Z,6.54
2022-11-16T05:25:25.535Z,6.51
2022-11-16T05:27:52.216Z,6.53
2022-11-16T05:30:19.016Z,6.53
2022-11-16T05:32:46.214Z,6.54
2022-11-16T05:35:12.923Z,6.57
2022-11-16T05:37:40.123Z,6.56
2022-11-16T05:40:07.508Z,6.59
2022-11-16T05:42:34.322Z,6.60
2022-11-16T05:45:01.228Z,6.64
2022-11-16T05:47:27.980Z,6.65
2022-11-16T05:49:56.210Z,6.63
2022-11-16T05:52:25.507Z,6.68
2022-11-16T05:54:52.293Z,6.67
2022-11-16T05:57:20.061Z,6.67
2022-11-16T05:59:46.735Z,6.68
2022-11-16T06:02:13.541Z,6.72
2022-11-16T06:04:40.436Z,6.72
2022-11-16T06:07:07.395Z,6.73
2022-11-16T06:09:34.056Z,6.74
2022-11-16T06:12:00.745Z,6.76
2022-11-16T06:14:27.521Z,6.83
2022-11-16T06:16:54.311Z,6.78
2022-11-16T06:19:21.011Z,6.75
2022-11-16T06:21:47.661Z,6.78
2022-11-16T06:24:14.443Z,6.80
2022-11-16T06:26:41.326Z,6.82
2022-11-16T06:29:08.117Z,6.83
2022-11-16T06:31:34.932Z,6.83
2022-11-16T06:34:01.679Z,6.88
2022-11-16T06:36:28.509Z,6.88
2022-11-16T06:38:55.313Z,6.83
2022-11-16T06:41:22.202Z,6.88
2022-11-16T06:43:48.907Z,6.88
2022-11-16T06:46:15.858Z,6.88
2022-11-16T06:48:42.590Z,6.93
2022-11-16T06:51:09.418Z,6.93
2022-11-16T06:53:36.073Z,6.93
2022-11-16T06:56:06.722Z,6.96
2022-11-16T06:58:34.642Z,6.97
2022-11-16T07:01:12.118Z,6.89
2022-11-16T07:03:39.060Z,6.93
2022-11-16T07:06:08.226Z,6.97
2022-11-16T07:08:35.394Z,6.99
2022-11-16T07:11:05.194Z,6.98
2022-11-16T07:13:37.051Z,6.95
2022-11-16T07:16:08.978Z,6.93
2022-11-16T07:18:36.972Z,7.01
2022-11-16T07:21:08.179Z,7.00
2022-11-16T07:23:35.966Z,7.05
2022-11-16T07:26:04.083Z,7.10
2022-11-16T07:28:31.929Z,7.13
2022-11-16T07:31:03.911Z,7.16
2022-11-16T07:33:30.838Z,7.14
2022-11-16T07:36:04.077Z,7.13
2022-11-16T07:38:32.413Z,7.13
2022-11-16T07:41:01.369Z,7.18
2022-11-16T07:43:31.711Z,7.13
2022-11-16T07:46:44.521Z,7.16
2022-11-16T07:48:53.534Z,7.26
2022-11-16T07:51:20.273Z,7.24
2022-11-16T07:53:46.951Z,7.23
2022-11-16T07:56:13.630Z,7.24
2022-11-16T07:58:40.547Z,7.22
2022-11-16T08:01:16.330Z,7.23
2022-11-16T08:03:44.540Z,7.24
2022-11-16T08:06:17.131Z,7.22
2022-11-16T08:08:44.314Z,7.19
2022-11-16T08:11:12.413Z,7.27
2022-11-16T08:13:40.806Z,7.29
2022-11-16T08:16:26.595Z,7.30
2022-11-16T08:18:53.332Z,7.39
2022-11-16T08:21:20.375Z,7.37
2022-11-16T08:23:47.358Z,7.29
2022-11-16T08:26:17.242Z,7.33
2022-11-16T08:28:46.700Z,7.34
2022-11-16T08:31:16.054Z,7.35
2022-11-16T08:33:42.995Z,7.43
2022-11-16T08:36:14.364Z,7.44
2022-11-16T08:38:41.320Z,7.43
2022-11-16T08:41:08.327Z,7.39
2022-11-16T08:43:35.784Z,7.38
2022-11-16T08:46:03.118Z,7.39
2022-11-16T08:48:29.882Z,7.39
2022-11-16T08:51:21.347Z,7.45
2022-11-16T08:53:49.361Z,7.45
2022-11-16T08:56:17.707Z,7.52
2022-11-16T08:58:46.964Z,7.47
2022-11-16T09:01:19.181Z,7.44
2022-11-16T09:03:46.659Z,7.49
2022-11-16T09:06:14.462Z,7.47
2022-11-16T09:08:43.105Z,7.50
2022-11-16T09:11:12.484Z,7.58
2022-11-16T09:13:39.581Z,7.55
2022-11-16T09:16:06.448Z,7.61
2022-11-16T09:18:34.704Z,7.58
2022-11-16T09:21:01.890Z,7.61
2022-11-16T09:23:28.728Z,7.54
2022-11-16T09:25:56.076Z,7.59
2022-11-16T09:28:22.859Z,7.58
2022-11-16T09:30:51.301Z,7.64
2022-11-16T09:33:18.281Z,7.69
2022-11-16T09:35:45.058Z,7.68
2022-11-16T09:38:14.879Z,7.68
2022-11-16T09:40:48.027Z,7.76
2022-11-16T09:43:46.148Z,7.75
2022-11-16T09:46:20.317Z,7.75
2022-11-16T09:48:49.337Z,7.77
2022-11-16T09:51:18.739Z,7.78
2022-11-16T09:53:49.289Z,7.81
2022-11-16T09:56:26.499Z,7.78
2022-11-16T09:59:00.304Z,7.78
2022-11-16T10:01:33.478Z,7.81
2022-11-16T10:04:20.839Z,7.87
2022-11-16T10:06:54.381Z,7.87
2022-11-16T10:09:21.869Z,7.83
2022-11-16T10:11:51.569Z,7.97
2022-11-16T10:14:38.303Z,7.98
2022-11-16T10:17:20.180Z,8.06
2022-11-16T10:20:05.391Z,7.96
2022-11-16T10:22:53.891Z,7.85
2022-11-16T10:25:22.048Z,7.99
2022-11-16T10:27:57.330Z,7.93
2022-11-16T10:30:24.303Z,7.90
2022-11-16T10:33:15.954Z,7.89
2022-11-16T10:35:54.255Z,7.88
2022-11-16T10:38:25.926Z,7.92
2022-11-16T10:40:57.316Z,7.94
2022-11-16T10:43:30.434Z,7.98
2022-11-16T10:46:17.054Z,8.02
2022-11-16T10:49:02.054Z,7.92
2022-11-16T10:51:28.809Z,7.93
2022-11-16T10:53:56.987Z,7.90
2022-11-16T10:56:39.752Z,7.90
2022-11-16T10:59:10.809Z,7.88
2022-11-16T11:01:50.489Z,7.83
2022-11-16T11:04:35.619Z,7.91
2022-11-16T11:07:24.644Z,7.97
2022-11-16T11:09:55.004Z,7.98
2022-11-16T11:12:39.392Z,8.05
2022-11-16T11:15:27.329Z,7.99
2022-11-16T11:18:30.189Z,7.99
2022-11-16T11:21:19.369Z,8.00
2022-11-16T11:23:52.325Z,7.96
2022-11-16T11:26:34.675Z,8.03
2022-11-16T11:29:24.874Z,8.11
2022-11-16T11:32:06.330Z,7.94
2022-11-16T11:34:43.737Z,8.03
2022-11-16T11:37:35.524Z,8.06
2022-11-16T11:40:09.682Z,8.12
2022-11-16T11:42:41.246Z,8.14
2022-11-16T11:45:13.218Z,8.08
2022-11-16T11:47:58.724Z,7.94
2022-11-16T11:50:51.163Z,7.96
2022-11-16T11:53:20.990Z,8.01
2022-11-16T11:55:51.458Z,8.06
2022-11-16T11:58:19.420Z,8.02
2022-11-16T12:01:09.152Z,8.07
2022-11-16T12:03:57.033Z,8.03
2022-11-16T12:06:44.728Z,8.00
2022-11-16T12:10:02.327Z,8.03
2022-11-16T12:12:35.063Z,8.04
2022-11-16T12:15:32.110Z,8.09
2022-11-16T12:18:04.941Z,8.12
2022-11-16T12:20:42.825Z,8.18
2022-11-16T12:23:27.265Z,8.07
2022-11-16T12:25:53.750Z,8.14
2022-11-16T12:28:50.875Z,8.17
2022-11-16T12:31:36.259Z,8.23
2022-11-16T12:34:24.605Z,8.22
2022-11-16T12:37:23.655Z,8.17
2022-11-16T12:40:18.578Z,8.21
2022-11-16T12:43:08.172Z,8.30
2022-11-16T12:45:46.309Z,8.07
2022-11-16T12:48:25.214Z,8.18
2022-11-16T12:51:08.928Z,8.15
2022-11-16T12:53:44.963Z,8.07
2022-11-16T12:56:38.335Z,8.01
2022-11-16T12:59:28.185Z,7.98
2022-11-16T13:02:31.621Z,8.11
2022-11-16T13:05:17.010Z,8.01
2022-11-16T13:08:05.426Z,8.00
2022-11-16T13:10:36.610Z,7.96
2022-11-16T13:13:35.917Z,7.87
2022-11-16T13:16:06.580Z,7.86
2022-11-16T13:18:35.640Z,7.86
2022-11-16T13:21:40.101Z,7.90
2022-11-16T13:24:30.262Z,7.86
2022-11-16T13:27:15.142Z,7.86
2022-11-16T13:30:26.959Z,7.83
2022-11-16T13:33:15.625Z,7.81
2022-11-16T13:35:42.287Z,7.82
2022-11-16T13:38:13.514Z,7.77
2022-11-16T13:40:41.168Z,7.77
2022-11-16T13:43:10.952Z,7.78
2022-11-16T13:46:01.263Z,7.79
2022-11-16T13:48:34.409Z,7.64
2022-11-16T13:51:04.819Z,7.67
2022-11-16T13:56:29.326Z,7.63
2022-11-16T13:58:58.251Z,7.59
2022-11-16T14:01:26.521Z,7.57
2022-11-16T14:04:31.757Z,7.58
2022-11-16T14:06:59.944Z,7.59
2022-11-16T14:09:47.346Z,7.63
2022-11-16T14:12:36.169Z,7.56
2022-11-16T14:15:16.829Z,7.60
2022-11-16T14:17:52.263Z,7.54
2022-11-16T14:20:37.286Z,7.45
2022-11-16T14:23:18.860Z,7.44
2022-11-16T14:25:57.695Z,7.49
2022-11-16T14:28:38.119Z,7.46
2022-11-16T14:31:29.252Z,7.38
2022-11-16T14:33:58.852Z,7.31
2022-11-16T14:36:41.465Z,7.26
2022-11-16T14:39:23.723Z,7.26
2022-11-16T14:41:51.071Z,7.17
2022-11-16T14:44:21.795Z,7.15
2022-11-16T14:46:48.680Z,7.12
2022-11-16T14:49:17.947Z,7.18
2022-11-16T14:51:48.824Z,7.10
2022-11-16T14:54:24.729Z,7.01
2022-11-16T14:57:00.362Z,6.99
2022-11-16T14:59:28.135Z,7.01
2022-11-16T15:01:55.165Z,6.98
2022-11-16T15:04:24.837Z,6.93
2022-11-16T15:06:58.291Z,6.90
2022-11-16T15:09:35.573Z,6.97
2022-11-16T15:12:23.213Z,6.88
2022-11-16T15:14:56.537Z,6.93
2022-11-16T15:17:31.884Z,7.26
2022-11-16T15:20:03.129Z,6.96
2022-11-16T15:22:31.882Z,6.97
2022-11-16T15:25:00.602Z,6.86
2022-11-16T15:27:38.986Z,6.78
2022-11-16T15:30:18.430Z,6.87
2022-11-16T15:32:47.586Z,6.85
2022-11-16T15:35:28.683Z,6.80
2022-11-16T15:38:18.631Z,6.79
2022-11-16T15:40:53.878Z,6.78
2022-11-16T15:43:23.912Z,6.78
2022-11-16T15:45:51.498Z,6.76
2022-11-16T15:48:23.221Z,6.73
2022-11-16T15:51:14.220Z,6.72
2022-11-16T15:53:53.235Z,6.74
2022-11-16T15:56:25.894Z,6.63
2022-11-16T15:58:58.526Z,6.74
2022-11-16T16:01:25.924Z,6.75
2022-11-16T16:04:05.898Z,6.63
2022-11-16T16:06:44.230Z,6.65
2022-11-16T16:09:24.882Z,6.60
2022-11-16T16:11:53.692Z,6.65
2022-11-16T16:14:30.351Z,6.59
2022-11-16T16:16:59.051Z,6.55
2022-11-16T16:19:31.922Z,6.49
2022-11-16T16:21:59.523Z,6.45
2022-11-16T16:24:44.128Z,6.48
2022-11-16T16:27:28.946Z,6.45
2022-11-16T16:29:58.104Z,6.48
2022-11-16T16:32:36.881Z,6.48
2022-11-16T16:35:06.661Z,6.45
2022-11-16T16:37:36.061Z,6.36
2022-11-16T16:40:03.693Z,6.35
2022-11-16T16:42:30.484Z,6.35
2022-11-16T16:44:59.585Z,6.33
2022-11-16T16:47:26.396Z,6.27
2022-11-16T16:49:53.184Z,6.27
2022-11-16T16:52:19.879Z,6.25
2022-11-16T16:54:46.618Z,6.21
2022-11-16T16:57:17.832Z,6.21
2022-11-16T16:59:45.833Z,6.16
2022-11-16T17:02:13.158Z,6.20
2022-11-16T17:04:40.208Z,6.14
2022-11-16T17:07:07.136Z,6.19
2022-11-16T17:09:33.903Z,6.15
2022-11-16T17:12:00.783Z,6.10
2022-11-16T17:14:27.523Z,6.09
2022-11-16T17:16:54.384Z,6.07
2022-11-16T17:19:22.542Z,6.05
2022-11-16T17:21:51.431Z,6.08
2022-11-16T17:24:18.218Z,6.01
2022-11-16T17:26:48.223Z,6.02
2022-11-16T17:29:15.279Z,5.98
2022-11-16T17:31:44.942Z,5.98
2022-11-16T17:34:13.702Z,5.97
2022-11-16T17:36:41.473Z,5.97
2022-11-16T17:39:08.179Z,6.00
2022-11-16T17:41:35.277Z,5.97
2022-11-16T17:44:02.157Z,5.99
2022-11-16T17:46:29.064Z,5.97
2022-11-16T17:48:56.328Z,5.96
2022-11-16T17:51:25.162Z,5.91
2022-11-16T17:53:52.689Z,5.94
2022-11-16T17:56:21.997Z,5.99
2022-11-16T17:58:50.254Z,5.96
2022-11-16T18:01:17.192Z,5.96
2022-11-16T18:03:44.514Z,5.95
2022-11-16T18:06:13.749Z,5.90
2022-11-16T18:08:41.773Z,5.91
2022-11-16T18:11:11.362Z,5.90
2022-11-16T18:13:38.192Z,5.83
2022-11-16T18:16:17.929Z,5.85
2022-11-16T18:18:46.724Z,5.82
2022-11-16T18:21:20.391Z,5.81
2022-11-16T18:23:48.039Z,5.82
2022-11-16T18:26:17.234Z,5.77
2022-11-16T18:28:47.886Z,5.78
2022-11-16T18:31:16.935Z,5.82
2022-11-16T18:33:44.319Z,5.75
2022-11-16T18:36:12.019Z,5.71
2022-11-16T18:38:39.167Z,5.79
2022-11-16T18:41:11.796Z,5.69
2022-11-16T18:43:55.671Z,5.78
2022-11-16T18:46:27.716Z,5.71
2022-11-16T18:48:55.444Z,5.66
2022-11-16T18:51:23.725Z,5.61
2022-11-16T18:53:50.785Z,5.67
2022-11-16T18:56:18.325Z,5.69
2022-11-16T18:58:53.360Z,5.63
2022-11-16T19:01:23.632Z,5.64
2022-11-16T19:03:51.339Z,5.55
2022-11-16T19:06:18.532Z,5.57
2022-11-16T19:08:53.726Z,5.51
2022-11-16T19:11:23.797Z,5.52
2022-11-16T19:13:56.357Z,5.55
2022-11-16T19:16:24.096Z,5.62
2022-11-16T19:18:50.779Z,5.54
2022-11-16T19:21:22.131Z,5.56
2022-11-16T19:23:54.560Z,5.55
2022-11-16T19:26:24.412Z,5.53
2022-11-16T19:28:52.587Z,5.52
2022-11-16T19:31:28.604Z,5.56
2022-11-16T19:34:01.045Z,5.53
2022-11-16T19:36:29.347Z,5.53
2022-11-16T19:38:56.316Z,5.52
2022-11-16T19:41:25.298Z,5.54
2022-11-16T19:44:01.872Z,5.55
2022-11-16T19:46:34.418Z,5.55
2022-11-16T19:49:01.870Z,5.53
2022-11-16T19:51:30.905Z,5.54
2022-11-16T19:53:59.594Z,5.49
2022-11-16T19:56:26.879Z,5.53
2022-11-16T19:58:53.678Z,5.50
2022-11-16T20:01:21.638Z,5.59
2022-11-16T20:03:49.379Z,5.57
2022-11-16T20:06:25.994Z,5.55
2022-11-16T20:08:55.967Z,5.54
2022-11-16T20:11:25.333Z,5.56
2022-11-16T20:13:54.303Z,5.60
2022-11-16T20:16:24.110Z,5.48
2022-11-16T20:18:52.328Z,5.51
2022-11-16T20:21:23.717Z,5.41
2022-11-16T20:23:54.276Z,5.37
2022-11-16T20:26:22.276Z,5.36
2022-11-16T20:28:52.369Z,5.31
2022-11-16T20:31:20.640Z,5.35
2022-11-16T20:33:52.554Z,5.30
2022-11-16T20:36:19.771Z,5.27
2022-11-16T20:38:46.784Z,5.30
2022-11-16T20:41:18.798Z,5.22
2022-11-16T20:43:46.465Z,5.26
2022-11-16T20:46:15.131Z,5.27
2022-11-16T20:48:43.174Z,5.19
2022-11-16T20:51:12.961Z,5.20
2022-11-16T20:53:39.708Z,5.25
2022-11-16T20:56:07.709Z,5.19
2022-11-16T20:58:35.010Z,5.25
2022-11-16T21:01:07.031Z,5.27
2022-11-16T21:03:34.647Z,5.20
2022-11-16T21:06:01.681Z,5.22
2022-11-16T21:08:30.674Z,5.24
2022-11-16T21:10:58.273Z,5.25
2022-11-16T21:13:44.056Z,5.23
2022-11-16T21:16:12.372Z,5.23
2022-11-16T21:18:39.855Z,5.19
2022-11-16T21:21:08.009Z,5.15
2022-11-16T21:23:36.443Z,5.13
2022-11-16T21:26:06.005Z,5.12
2022-11-16T21:28:32.982Z,5.12
2022-11-16T21:31:11.702Z,5.11
2022-11-16T21:33:40.461Z,5.04
2022-11-16T21:36:19.463Z,5.12
2022-11-16T21:38:46.367Z,5.08
2022-11-16T21:41:15.135Z,5.06
2022-11-16T21:43:42.083Z,5.01
2022-11-16T21:46:17.229Z,5.00
2022-11-16T21:48:44.639Z,4.90
2022-11-16T21:51:16.388Z,4.80
2022-11-16T21:53:44.489Z,4.76
2022-11-16T21:56:17.196Z,4.73
2022-11-16T21:58:44.584Z,4.73
2022-11-16T22:01:12.650Z,4.61
2022-11-16T22:03:39.832Z,4.49
2022-11-16T22:06:29.675Z,4.38
2022-11-16T22:08:56.589Z,4.26
2022-11-16T22:11:23.349Z,4.20
2022-11-16T22:13:50.253Z,4.13
2022-11-16T22:16:19.007Z,4.03
2022-11-16T22:18:45.968Z,4.00
2022-11-16T22:21:12.876Z,3.89
2022-11-16T22:23:40.020Z,3.78
2022-11-16T22:26:09.872Z,3.73
2022-11-16T22:28:37.479Z,3.75
2022-11-16T22:31:06.711Z,3.72
2022-11-16T22:33:34.571Z,3.63
2022-11-16T22:36:01.703Z,3.58
2022-11-16T22:38:28.559Z,3.50
2022-11-16T22:40:57.094Z,3.43
2022-11-16T22:43:26.137Z,3.35
2022-11-16T22:46:00.367Z,3.33
2022-11-16T22:48:38.325Z,3.26
2022-11-16T22:51:12.350Z,3.18
2022-11-16T22:53:39.300Z,3.17
2022-11-16T22:56:07.886Z,3.14
2022-11-16T22:58:38.502Z,3.06
2022-11-16T23:01:07.466Z,3.04
2022-11-16T23:03:34.955Z,2.95
2022-11-16T23:06:02.305Z,2.98
2022-11-16T23:08:29.192Z,2.88
2022-11-16T23:11:18.301Z,2.83
2022-11-16T23:14:04.254Z,2.86
2022-11-16T23:16:30.925Z,2.79
2022-11-16T23:18:58.242Z,2.81
2022-11-16T23:21:43.995Z,2.76
2022-11-16T23:24:34.514Z,2.71
2022-11-16T23:27:21.711Z,2.72
2022-11-16T23:29:48.705Z,2.65
2022-11-16T23:32:15.418Z,2.62
2022-11-16T23:34:42.059Z,2.57
2022-11-16T23:37:08.738Z,2.54
2022-11-16T23:39:35.458Z,2.51
2022-11-16T23:42:20.903Z,2.51
2022-11-16T23:44:47.616Z,2.42
2022-11-16T23:47:14.351Z,2.45
2022-11-16T23:49:41.041Z,2.46
2022-11-16T23:52:07.736Z,2.42
2022-11-16T23:54:34.423Z,2.38
2022-11-16T23:57:01.210Z,2.36
2022-11-16T23:59:27.934Z,2.34
